sensor_id;sensor_type;location;lat;lon;timestamp;P1;durP1;ratioP1;P2;durP2;ratioP2
47760;SDS011;33524;55.434;38.520;2024-01-25T00:01:39;18.95;;;10.43;;
47760;SDS011;33524;55.434;38.520;2024-01-25T00:09:12;21.12;;;12.05;;
47760;SDS011;33524;55.434;38.520;2024-01-25T00:14:35;21.35;;;11.82;;
47760;SDS011;33524;55.434;38.520;2024-01-25T00:19:43;24.58;;;11.82;;
47760;SDS011;33524;55.434;38.520;2024-01-25T00:22:11;22.83;;;10.98;;
47760;SDS011;33524;55.434;38.520;2024-01-25T00:24:39;24.35;;;11.68;;
47760;SDS011;33524;55.434;38.520;2024-01-25T00:27:08;24.08;;;12.30;;
47760;SDS011;33524;55.434;38.520;2024-01-25T00:29:37;24.23;;;11.25;;
47760;SDS011;33524;55.434;38.520;2024-01-25T00:32:05;23.62;;;11.20;;
47760;SDS011;33524;55.434;38.520;2024-01-25T00:34:33;18.33;;;10.77;;
47760;SDS011;33524;55.434;38.520;2024-01-25T00:37:02;15.15;;;8.70;;
47760;SDS011;33524;55.434;38.520;2024-01-25T00:39:31;18.95;;;10.25;;
47760;SDS011;33524;55.434;38.520;2024-01-25T00:42:02;19.23;;;10.63;;
47760;SDS011;33524;55.434;38.520;2024-01-25T00:44:35;19.62;;;11.52;;
47760;SDS011;33524;55.434;38.520;2024-01-25T00:47:04;15.45;;;9.48;;
47760;SDS011;33524;55.434;38.520;2024-01-25T00:49:32;19.33;;;11.43;;
47760;SDS011;33524;55.434;38.520;2024-01-25T00:52:04;19.40;;;10.32;;
47760;SDS011;33524;55.434;38.520;2024-01-25T00:54:33;20.20;;;10.98;;
47760;SDS011;33524;55.434;38.520;2024-01-25T00:57:01;18.98;;;10.15;;
47760;SDS011;33524;55.434;38.520;2024-01-25T00:59:29;20.75;;;11.82;;
47760;SDS011;33524;55.434;38.520;2024-01-25T01:02:01;20.42;;;11.00;;
47760;SDS011;33524;55.434;38.520;2024-01-25T01:04:36;19.15;;;10.70;;
47760;SDS011;33524;55.434;38.520;2024-01-25T01:07:14;22.98;;;10.60;;
47760;SDS011;33524;55.434;38.520;2024-01-25T01:09:43;18.55;;;10.57;;
47760;SDS011;33524;55.434;38.520;2024-01-25T01:12:11;17.52;;;10.05;;
47760;SDS011;33524;55.434;38.520;2024-01-25T01:14:39;21.75;;;10.57;;
47760;SDS011;33524;55.434;38.520;2024-01-25T01:17:08;25.00;;;11.50;;
47760;SDS011;33524;55.434;38.520;2024-01-25T01:19:36;18.12;;;8.43;;
47760;SDS011;33524;55.434;38.520;2024-01-25T01:22:07;21.25;;;11.85;;
47760;SDS011;33524;55.434;38.520;2024-01-25T01:24:36;18.90;;;10.40;;
47760;SDS011;33524;55.434;38.520;2024-01-25T01:27:07;21.25;;;10.70;;
47760;SDS011;33524;55.434;38.520;2024-01-25T01:29:35;21.15;;;10.57;;
47760;SDS011;33524;55.434;38.520;2024-01-25T01:32:03;19.45;;;10.43;;
47760;SDS011;33524;55.434;38.520;2024-01-25T01:34:32;20.30;;;10.85;;
47760;SDS011;33524;55.434;38.520;2024-01-25T01:37:01;20.20;;;11.30;;
47760;SDS011;33524;55.434;38.520;2024-01-25T01:39:29;18.62;;;10.25;;
47760;SDS011;33524;55.434;38.520;2024-01-25T01:41:57;23.65;;;11.20;;
47760;SDS011;33524;55.434;38.520;2024-01-25T01:44:25;21.45;;;10.27;;
47760;SDS011;33524;55.434;38.520;2024-01-25T01:46:53;15.85;;;9.00;;
47760;SDS011;33524;55.434;38.520;2024-01-25T01:49:22;17.02;;;10.73;;
47760;SDS011;33524;55.434;38.520;2024-01-25T01:51:51;17.60;;;10.20;;
47760;SDS011;33524;55.434;38.520;2024-01-25T01:54:20;20.50;;;9.45;;
47760;SDS011;33524;55.434;38.520;2024-01-25T01:56:48;20.52;;;11.40;;
47760;SDS011;33524;55.434;38.520;2024-01-25T01:59:17;15.50;;;9.38;;
47760;SDS011;33524;55.434;38.520;2024-01-25T02:01:45;19.62;;;10.68;;
47760;SDS011;33524;55.434;38.520;2024-01-25T02:04:14;21.02;;;10.48;;
47760;SDS011;33524;55.434;38.520;2024-01-25T02:06:42;22.15;;;9.82;;
47760;SDS011;33524;55.434;38.520;2024-01-25T02:09:11;11.98;;;6.85;;
47760;SDS011;33524;55.434;38.520;2024-01-25T02:11:41;18.30;;;11.00;;
47760;SDS011;33524;55.434;38.520;2024-01-25T02:14:09;19.45;;;10.63;;
47760;SDS011;33524;55.434;38.520;2024-01-25T02:16:41;21.70;;;11.60;;
47760;SDS011;33524;55.434;38.520;2024-01-25T02:19:13;21.75;;;10.65;;
47760;SDS011;33524;55.434;38.520;2024-01-25T02:21:44;17.83;;;10.50;;
47760;SDS011;33524;55.434;38.520;2024-01-25T02:24:13;19.67;;;11.25;;
47760;SDS011;33524;55.434;38.520;2024-01-25T02:26:41;18.12;;;10.93;;
47760;SDS011;33524;55.434;38.520;2024-01-25T02:29:10;17.95;;;10.95;;
47760;SDS011;33524;55.434;38.520;2024-01-25T02:31:38;15.75;;;8.32;;
47760;SDS011;33524;55.434;38.520;2024-01-25T02:34:06;19.02;;;10.40;;
47760;SDS011;33524;55.434;38.520;2024-01-25T02:36:34;14.45;;;8.05;;
47760;SDS011;33524;55.434;38.520;2024-01-25T02:39:03;21.42;;;11.12;;
47760;SDS011;33524;55.434;38.520;2024-01-25T02:41:32;23.33;;;10.57;;
47760;SDS011;33524;55.434;38.520;2024-01-25T02:44:00;20.00;;;10.30;;
47760;SDS011;33524;55.434;38.520;2024-01-25T02:46:28;19.75;;;11.52;;
47760;SDS011;33524;55.434;38.520;2024-01-25T02:48:56;19.80;;;10.90;;
47760;SDS011;33524;55.434;38.520;2024-01-25T02:51:25;21.52;;;11.12;;
47760;SDS011;33524;55.434;38.520;2024-01-25T02:53:53;20.15;;;10.98;;
47760;SDS011;33524;55.434;38.520;2024-01-25T02:56:21;18.48;;;10.82;;
47760;SDS011;33524;55.434;38.520;2024-01-25T02:58:49;22.13;;;11.27;;
47760;SDS011;33524;55.434;38.520;2024-01-25T03:01:17;20.08;;;10.68;;
47760;SDS011;33524;55.434;38.520;2024-01-25T03:03:46;18.02;;;9.90;;
47760;SDS011;33524;55.434;38.520;2024-01-25T03:06:14;17.67;;;9.15;;
47760;SDS011;33524;55.434;38.520;2024-01-25T03:08:42;17.17;;;9.98;;
47760;SDS011;33524;55.434;38.520;2024-01-25T03:11:10;15.15;;;9.10;;
47760;SDS011;33524;55.434;38.520;2024-01-25T03:13:41;19.00;;;11.23;;
47760;SDS011;33524;55.434;38.520;2024-01-25T03:16:10;20.25;;;10.63;;
47760;SDS011;33524;55.434;38.520;2024-01-25T03:18:38;17.23;;;9.00;;
47760;SDS011;33524;55.434;38.520;2024-01-25T03:21:09;16.80;;;10.35;;
47760;SDS011;33524;55.434;38.520;2024-01-25T03:23:37;17.87;;;9.75;;
47760;SDS011;33524;55.434;38.520;2024-01-25T03:26:06;20.90;;;11.85;;
47760;SDS011;33524;55.434;38.520;2024-01-25T03:28:34;22.52;;;9.63;;
47760;SDS011;33524;55.434;38.520;2024-01-25T03:31:03;21.35;;;12.05;;
47760;SDS011;33524;55.434;38.520;2024-01-25T03:33:31;21.70;;;11.25;;
47760;SDS011;33524;55.434;38.520;2024-01-25T03:36:03;26.48;;;12.73;;
47760;SDS011;33524;55.434;38.520;2024-01-25T03:38:32;20.98;;;11.45;;
47760;SDS011;33524;55.434;38.520;2024-01-25T03:41:00;19.48;;;10.48;;
47760;SDS011;33524;55.434;38.520;2024-01-25T03:43:28;19.80;;;11.00;;
47760;SDS011;33524;55.434;38.520;2024-01-25T03:46:12;26.98;;;13.00;;
47760;SDS011;33524;55.434;38.520;2024-01-25T03:48:41;24.37;;;13.43;;
47760;SDS011;33524;55.434;38.520;2024-01-25T03:51:10;31.50;;;13.75;;
47760;SDS011;33524;55.434;38.520;2024-01-25T03:53:38;24.58;;;13.05;;
47760;SDS011;33524;55.434;38.520;2024-01-25T03:56:15;28.27;;;13.62;;
47760;SDS011;33524;55.434;38.520;2024-01-25T03:58:45;30.08;;;14.93;;
47760;SDS011;33524;55.434;38.520;2024-01-25T04:01:14;24.33;;;11.98;;
47760;SDS011;33524;55.434;38.520;2024-01-25T04:03:42;33.53;;;15.32;;
47760;SDS011;33524;55.434;38.520;2024-01-25T04:06:10;20.08;;;10.07;;
47760;SDS011;33524;55.434;38.520;2024-01-25T04:08:38;24.15;;;12.35;;
47760;SDS011;33524;55.434;38.520;2024-01-25T04:11:07;25.75;;;14.25;;
47760;SDS011;33524;55.434;38.520;2024-01-25T04:13:36;24.90;;;14.55;;
47760;SDS011;33524;55.434;38.520;2024-01-25T04:16:04;23.95;;;12.90;;
47760;SDS011;33524;55.434;38.520;2024-01-25T04:18:33;24.37;;;12.63;;
47760;SDS011;33524;55.434;38.520;2024-01-25T04:21:01;27.23;;;11.90;;
47760;SDS011;33524;55.434;38.520;2024-01-25T04:23:30;31.95;;;13.43;;
47760;SDS011;33524;55.434;38.520;2024-01-25T04:25:58;29.90;;;14.00;;
47760;SDS011;33524;55.434;38.520;2024-01-25T04:28:26;27.25;;;13.15;;
47760;SDS011;33524;55.434;38.520;2024-01-25T04:30:54;24.73;;;10.98;;
47760;SDS011;33524;55.434;38.520;2024-01-25T04:33:23;21.30;;;11.40;;
47760;SDS011;33524;55.434;38.520;2024-01-25T04:35:52;25.33;;;12.48;;
47760;SDS011;33524;55.434;38.520;2024-01-25T04:38:20;28.02;;;12.77;;
47760;SDS011;33524;55.434;38.520;2024-01-25T04:40:49;28.23;;;12.37;;
47760;SDS011;33524;55.434;38.520;2024-01-25T04:43:17;23.02;;;12.40;;
47760;SDS011;33524;55.434;38.520;2024-01-25T04:45:45;31.73;;;14.57;;
47760;SDS011;33524;55.434;38.520;2024-01-25T04:48:14;29.92;;;14.80;;
47760;SDS011;33524;55.434;38.520;2024-01-25T04:50:42;32.17;;;14.80;;
47760;SDS011;33524;55.434;38.520;2024-01-25T04:53:10;35.10;;;15.00;;
47760;SDS011;33524;55.434;38.520;2024-01-25T04:55:39;35.47;;;16.80;;
47760;SDS011;33524;55.434;38.520;2024-01-25T04:58:07;32.30;;;16.95;;
47760;SDS011;33524;55.434;38.520;2024-01-25T05:00:35;37.33;;;19.15;;
47760;SDS011;33524;55.434;38.520;2024-01-25T05:03:04;39.92;;;17.70;;
47760;SDS011;33524;55.434;38.520;2024-01-25T05:05:32;35.15;;;15.55;;
47760;SDS011;33524;55.434;38.520;2024-01-25T05:08:01;42.03;;;17.80;;
47760;SDS011;33524;55.434;38.520;2024-01-25T05:10:29;34.10;;;15.88;;
47760;SDS011;33524;55.434;38.520;2024-01-25T05:12:57;31.90;;;13.73;;
47760;SDS011;33524;55.434;38.520;2024-01-25T05:15:25;45.70;;;17.15;;
47760;SDS011;33524;55.434;38.520;2024-01-25T05:17:53;34.72;;;17.67;;
47760;SDS011;33524;55.434;38.520;2024-01-25T05:20:22;31.98;;;15.35;;
47760;SDS011;33524;55.434;38.520;2024-01-25T05:22:50;32.45;;;15.52;;
47760;SDS011;33524;55.434;38.520;2024-01-25T05:25:19;37.42;;;17.12;;
47760;SDS011;33524;55.434;38.520;2024-01-25T05:27:47;35.95;;;16.10;;
47760;SDS011;33524;55.434;38.520;2024-01-25T05:30:15;36.67;;;17.37;;
47760;SDS011;33524;55.434;38.520;2024-01-25T05:32:43;34.97;;;15.52;;
47760;SDS011;33524;55.434;38.520;2024-01-25T05:35:13;31.17;;;14.52;;
47760;SDS011;33524;55.434;38.520;2024-01-25T05:37:42;32.78;;;15.07;;
47760;SDS011;33524;55.434;38.520;2024-01-25T05:40:11;32.15;;;15.05;;
47760;SDS011;33524;55.434;38.520;2024-01-25T05:42:39;31.85;;;15.88;;
47760;SDS011;33524;55.434;38.520;2024-01-25T05:45:10;30.80;;;15.15;;
47760;SDS011;33524;55.434;38.520;2024-01-25T05:47:41;38.78;;;16.75;;
47760;SDS011;33524;55.434;38.520;2024-01-25T05:50:09;31.67;;;15.25;;
47760;SDS011;33524;55.434;38.520;2024-01-25T05:52:38;32.72;;;16.37;;
47760;SDS011;33524;55.434;38.520;2024-01-25T05:55:06;22.80;;;12.10;;
47760;SDS011;33524;55.434;38.520;2024-01-25T05:57:35;29.30;;;13.23;;
47760;SDS011;33524;55.434;38.520;2024-01-25T06:00:05;25.88;;;12.52;;
47760;SDS011;33524;55.434;38.520;2024-01-25T06:02:34;25.10;;;13.07;;
47760;SDS011;33524;55.434;38.520;2024-01-25T06:05:03;29.33;;;15.20;;
47760;SDS011;33524;55.434;38.520;2024-01-25T06:07:31;32.47;;;14.27;;
47760;SDS011;33524;55.434;38.520;2024-01-25T06:09:59;27.42;;;13.98;;
47760;SDS011;33524;55.434;38.520;2024-01-25T06:12:30;30.45;;;14.85;;
47760;SDS011;33524;55.434;38.520;2024-01-25T06:14:58;34.15;;;15.68;;
47760;SDS011;33524;55.434;38.520;2024-01-25T06:17:27;28.95;;;12.95;;
47760;SDS011;33524;55.434;38.520;2024-01-25T06:19:55;27.23;;;14.05;;
47760;SDS011;33524;55.434;38.520;2024-01-25T06:22:24;28.52;;;13.80;;
47760;SDS011;33524;55.434;38.520;2024-01-25T06:24:52;25.50;;;12.73;;
47760;SDS011;33524;55.434;38.520;2024-01-25T06:27:20;27.77;;;14.45;;
47760;SDS011;33524;55.434;38.520;2024-01-25T06:29:48;33.47;;;15.05;;
47760;SDS011;33524;55.434;38.520;2024-01-25T06:32:17;23.30;;;13.07;;
47760;SDS011;33524;55.434;38.520;2024-01-25T06:34:53;27.73;;;15.02;;
47760;SDS011;33524;55.434;38.520;2024-01-25T06:37:24;27.80;;;13.20;;
47760;SDS011;33524;55.434;38.520;2024-01-25T06:39:52;22.80;;;12.75;;
47760;SDS011;33524;55.434;38.520;2024-01-25T06:42:20;23.08;;;12.90;;
47760;SDS011;33524;55.434;38.520;2024-01-25T06:44:49;22.75;;;10.40;;
47760;SDS011;33524;55.434;38.520;2024-01-25T06:47:17;22.85;;;11.05;;
47760;SDS011;33524;55.434;38.520;2024-01-25T06:49:48;23.55;;;11.35;;
47760;SDS011;33524;55.434;38.520;2024-01-25T06:52:19;23.02;;;12.20;;
47760;SDS011;33524;55.434;38.520;2024-01-25T06:54:48;19.33;;;11.20;;
47760;SDS011;33524;55.434;38.520;2024-01-25T06:57:17;21.98;;;11.75;;
47760;SDS011;33524;55.434;38.520;2024-01-25T06:59:45;20.37;;;9.93;;
47760;SDS011;33524;55.434;38.520;2024-01-25T07:02:14;16.70;;;10.35;;
47760;SDS011;33524;55.434;38.520;2024-01-25T07:04:42;20.05;;;10.65;;
47760;SDS011;33524;55.434;38.520;2024-01-25T07:07:11;20.70;;;11.35;;
47760;SDS011;33524;55.434;38.520;2024-01-25T07:09:39;18.17;;;9.73;;
47760;SDS011;33524;55.434;38.520;2024-01-25T07:12:08;18.67;;;9.55;;
47760;SDS011;33524;55.434;38.520;2024-01-25T07:14:36;20.42;;;9.55;;
47760;SDS011;33524;55.434;38.520;2024-01-25T07:17:05;22.17;;;9.63;;
47760;SDS011;33524;55.434;38.520;2024-01-25T07:19:32;21.83;;;10.65;;
47760;SDS011;33524;55.434;38.520;2024-01-25T07:22:01;20.42;;;9.00;;
47760;SDS011;33524;55.434;38.520;2024-01-25T07:24:30;19.87;;;11.65;;
47760;SDS011;33524;55.434;38.520;2024-01-25T07:26:59;22.45;;;11.25;;
47760;SDS011;33524;55.434;38.520;2024-01-25T07:29:27;15.85;;;9.02;;
47760;SDS011;33524;55.434;38.520;2024-01-25T07:31:56;17.40;;;8.57;;
47760;SDS011;33524;55.434;38.520;2024-01-25T07:34:24;19.52;;;10.60;;
47760;SDS011;33524;55.434;38.520;2024-01-25T07:36:52;17.75;;;9.35;;
47760;SDS011;33524;55.434;38.520;2024-01-25T07:39:21;19.85;;;9.35;;
47760;SDS011;33524;55.434;38.520;2024-01-25T07:41:49;17.73;;;8.65;;
47760;SDS011;33524;55.434;38.520;2024-01-25T07:44:16;16.60;;;8.93;;
47760;SDS011;33524;55.434;38.520;2024-01-25T07:46:47;19.17;;;9.65;;
47760;SDS011;33524;55.434;38.520;2024-01-25T07:49:15;21.42;;;9.93;;
47760;SDS011;33524;55.434;38.520;2024-01-25T07:51:43;18.60;;;8.90;;
47760;SDS011;33524;55.434;38.520;2024-01-25T07:54:11;28.00;;;12.63;;
47760;SDS011;33524;55.434;38.520;2024-01-25T07:56:40;26.75;;;10.70;;
47760;SDS011;33524;55.434;38.520;2024-01-25T07:59:08;20.17;;;9.95;;
47760;SDS011;33524;55.434;38.520;2024-01-25T08:01:36;23.55;;;11.02;;
47760;SDS011;33524;55.434;38.520;2024-01-25T08:04:05;17.15;;;10.07;;
47760;SDS011;33524;55.434;38.520;2024-01-25T08:06:33;19.90;;;10.65;;
47760;SDS011;33524;55.434;38.520;2024-01-25T08:09:01;23.62;;;11.18;;
47760;SDS011;33524;55.434;38.520;2024-01-25T08:11:30;18.42;;;10.00;;
47760;SDS011;33524;55.434;38.520;2024-01-25T08:13:58;18.77;;;9.48;;
47760;SDS011;33524;55.434;38.520;2024-01-25T08:16:27;17.92;;;9.80;;
47760;SDS011;33524;55.434;38.520;2024-01-25T08:18:55;20.50;;;9.43;;
47760;SDS011;33524;55.434;38.520;2024-01-25T08:21:24;19.60;;;9.63;;
47760;SDS011;33524;55.434;38.520;2024-01-25T08:23:52;18.87;;;9.63;;
47760;SDS011;33524;55.434;38.520;2024-01-25T08:26:24;19.23;;;10.23;;
47760;SDS011;33524;55.434;38.520;2024-01-25T08:28:52;15.65;;;9.10;;
47760;SDS011;33524;55.434;38.520;2024-01-25T08:31:21;22.02;;;11.12;;
47760;SDS011;33524;55.434;38.520;2024-01-25T08:33:48;18.12;;;10.20;;
47760;SDS011;33524;55.434;38.520;2024-01-25T08:36:20;16.92;;;9.07;;
47760;SDS011;33524;55.434;38.520;2024-01-25T08:38:48;21.87;;;9.40;;
47760;SDS011;33524;55.434;38.520;2024-01-25T08:41:16;20.17;;;10.45;;
47760;SDS011;33524;55.434;38.520;2024-01-25T08:43:44;16.33;;;8.77;;
47760;SDS011;33524;55.434;38.520;2024-01-25T08:46:14;19.23;;;8.75;;
47760;SDS011;33524;55.434;38.520;2024-01-25T08:48:45;18.30;;;9.07;;
47760;SDS011;33524;55.434;38.520;2024-01-25T08:51:14;13.77;;;8.07;;
47760;SDS011;33524;55.434;38.520;2024-01-25T08:53:42;17.52;;;9.95;;
47760;SDS011;33524;55.434;38.520;2024-01-25T08:56:11;14.38;;;8.65;;
47760;SDS011;33524;55.434;38.520;2024-01-25T08:58:39;19.62;;;9.68;;
47760;SDS011;33524;55.434;38.520;2024-01-25T09:01:07;18.73;;;11.35;;
47760;SDS011;33524;55.434;38.520;2024-01-25T09:03:36;18.90;;;9.27;;
47760;SDS011;33524;55.434;38.520;2024-01-25T09:06:04;17.58;;;10.52;;
47760;SDS011;33524;55.434;38.520;2024-01-25T09:08:33;13.73;;;6.28;;
47760;SDS011;33524;55.434;38.520;2024-01-25T09:11:02;17.48;;;8.95;;
47760;SDS011;33524;55.434;38.520;2024-01-25T09:13:31;17.23;;;9.23;;
47760;SDS011;33524;55.434;38.520;2024-01-25T09:16:11;18.67;;;9.55;;
47760;SDS011;33524;55.434;38.520;2024-01-25T09:18:39;17.95;;;9.15;;
47760;SDS011;33524;55.434;38.520;2024-01-25T09:21:07;16.45;;;9.23;;
47760;SDS011;33524;55.434;38.520;2024-01-25T09:23:36;16.35;;;9.45;;
47760;SDS011;33524;55.434;38.520;2024-01-25T09:26:04;19.10;;;9.07;;
47760;SDS011;33524;55.434;38.520;2024-01-25T09:28:32;17.90;;;9.55;;
47760;SDS011;33524;55.434;38.520;2024-01-25T09:31:01;11.77;;;6.93;;
47760;SDS011;33524;55.434;38.520;2024-01-25T09:33:31;18.85;;;9.35;;
47760;SDS011;33524;55.434;38.520;2024-01-25T09:36:01;15.63;;;9.25;;
47760;SDS011;33524;55.434;38.520;2024-01-25T09:38:30;17.33;;;9.25;;
47760;SDS011;33524;55.434;38.520;2024-01-25T09:40:58;17.02;;;7.95;;
47760;SDS011;33524;55.434;38.520;2024-01-25T09:43:29;17.12;;;9.70;;
47760;SDS011;33524;55.434;38.520;2024-01-25T09:45:58;15.52;;;8.63;;
47760;SDS011;33524;55.434;38.520;2024-01-25T09:48:29;18.33;;;10.05;;
47760;SDS011;33524;55.434;38.520;2024-01-25T09:50:57;16.98;;;9.63;;
47760;SDS011;33524;55.434;38.520;2024-01-25T09:53:28;16.23;;;8.30;;
47760;SDS011;33524;55.434;38.520;2024-01-25T09:56:05;17.35;;;7.72;;
47760;SDS011;33524;55.434;38.520;2024-01-25T09:58:39;19.23;;;10.18;;
47760;SDS011;33524;55.434;38.520;2024-01-25T10:01:13;15.63;;;9.63;;
47760;SDS011;33524;55.434;38.520;2024-01-25T10:03:44;17.92;;;9.52;;
47760;SDS011;33524;55.434;38.520;2024-01-25T10:06:14;18.60;;;10.05;;
47760;SDS011;33524;55.434;38.520;2024-01-25T10:08:44;14.23;;;8.02;;
47760;SDS011;33524;55.434;38.520;2024-01-25T10:11:13;16.40;;;7.62;;
47760;SDS011;33524;55.434;38.520;2024-01-25T10:13:45;16.20;;;9.40;;
47760;SDS011;33524;55.434;38.520;2024-01-25T10:16:15;16.70;;;8.55;;
47760;SDS011;33524;55.434;38.520;2024-01-25T10:18:46;14.10;;;7.80;;
47760;SDS011;33524;55.434;38.520;2024-01-25T10:21:20;19.02;;;9.23;;
47760;SDS011;33524;55.434;38.520;2024-01-25T10:23:50;19.48;;;9.77;;
47760;SDS011;33524;55.434;38.520;2024-01-25T10:26:19;17.62;;;9.40;;
47760;SDS011;33524;55.434;38.520;2024-01-25T10:28:52;19.98;;;10.65;;
47760;SDS011;33524;55.434;38.520;2024-01-25T10:31:28;20.70;;;9.85;;
47760;SDS011;33524;55.434;38.520;2024-01-25T10:33:59;15.77;;;9.15;;
47760;SDS011;33524;55.434;38.520;2024-01-25T10:36:29;15.38;;;8.98;;
47760;SDS011;33524;55.434;38.520;2024-01-25T10:38:59;16.85;;;10.02;;
47760;SDS011;33524;55.434;38.520;2024-01-25T10:41:37;18.65;;;9.00;;
47760;SDS011;33524;55.434;38.520;2024-01-25T10:44:07;18.62;;;9.65;;
47760;SDS011;33524;55.434;38.520;2024-01-25T10:46:35;20.37;;;10.02;;
47760;SDS011;33524;55.434;38.520;2024-01-25T10:49:06;20.17;;;10.43;;
47760;SDS011;33524;55.434;38.520;2024-01-25T10:51:36;16.45;;;7.53;;
47760;SDS011;33524;55.434;38.520;2024-01-25T10:54:09;16.35;;;11.23;;
47760;SDS011;33524;55.434;38.520;2024-01-25T10:56:43;16.55;;;9.50;;
47760;SDS011;33524;55.434;38.520;2024-01-25T10:59:13;15.85;;;9.35;;
47760;SDS011;33524;55.434;38.520;2024-01-25T11:01:47;15.95;;;9.02;;
47760;SDS011;33524;55.434;38.520;2024-01-25T11:04:16;14.68;;;8.73;;
47760;SDS011;33524;55.434;38.520;2024-01-25T11:06:50;15.73;;;7.35;;
47760;SDS011;33524;55.434;38.520;2024-01-25T11:09:19;13.88;;;8.90;;
47760;SDS011;33524;55.434;38.520;2024-01-25T11:11:49;18.60;;;9.88;;
47760;SDS011;33524;55.434;38.520;2024-01-25T11:14:21;14.27;;;8.27;;
47760;SDS011;33524;55.434;38.520;2024-01-25T11:16:53;18.60;;;9.23;;
47760;SDS011;33524;55.434;38.520;2024-01-25T11:19:21;16.92;;;8.43;;
47760;SDS011;33524;55.434;38.520;2024-01-25T11:21:51;16.70;;;9.23;;
47760;SDS011;33524;55.434;38.520;2024-01-25T11:24:23;17.42;;;9.95;;
47760;SDS011;33524;55.434;38.520;2024-01-25T11:26:55;12.95;;;8.32;;
47760;SDS011;33524;55.434;38.520;2024-01-25T11:29:23;19.75;;;8.55;;
47760;SDS011;33524;55.434;38.520;2024-01-25T11:31:51;18.77;;;10.93;;
47760;SDS011;33524;55.434;38.520;2024-01-25T11:34:20;15.40;;;8.40;;
47760;SDS011;33524;55.434;38.520;2024-01-25T11:36:49;16.85;;;9.13;;
47760;SDS011;33524;55.434;38.520;2024-01-25T11:39:17;16.67;;;8.55;;
47760;SDS011;33524;55.434;38.520;2024-01-25T11:41:46;17.83;;;8.45;;
47760;SDS011;33524;55.434;38.520;2024-01-25T11:44:14;18.98;;;9.50;;
47760;SDS011;33524;55.434;38.520;2024-01-25T11:46:43;14.50;;;9.70;;
47760;SDS011;33524;55.434;38.520;2024-01-25T11:49:12;15.23;;;9.07;;
47760;SDS011;33524;55.434;38.520;2024-01-25T11:51:44;16.45;;;9.23;;
47760;SDS011;33524;55.434;38.520;2024-01-25T11:54:12;16.33;;;8.73;;
47760;SDS011;33524;55.434;38.520;2024-01-25T11:56:40;16.73;;;9.23;;
47760;SDS011;33524;55.434;38.520;2024-01-25T11:59:13;14.87;;;9.40;;
47760;SDS011;33524;55.434;38.520;2024-01-25T12:01:42;17.67;;;9.35;;
47760;SDS011;33524;55.434;38.520;2024-01-25T12:04:11;18.17;;;10.25;;
47760;SDS011;33524;55.434;38.520;2024-01-25T12:06:40;18.85;;;9.07;;
47760;SDS011;33524;55.434;38.520;2024-01-25T12:09:11;15.27;;;8.55;;
47760;SDS011;33524;55.434;38.520;2024-01-25T12:11:40;16.45;;;9.10;;
47760;SDS011;33524;55.434;38.520;2024-01-25T12:14:09;20.30;;;9.85;;
47760;SDS011;33524;55.434;38.520;2024-01-25T12:16:37;20.45;;;9.65;;
47760;SDS011;33524;55.434;38.520;2024-01-25T12:19:07;14.07;;;7.93;;
47760;SDS011;33524;55.434;38.520;2024-01-25T12:21:36;17.45;;;10.30;;
47760;SDS011;33524;55.434;38.520;2024-01-25T12:24:05;17.92;;;10.18;;
47760;SDS011;33524;55.434;38.520;2024-01-25T12:26:36;19.12;;;9.95;;
47760;SDS011;33524;55.434;38.520;2024-01-25T12:29:04;15.32;;;8.57;;
47760;SDS011;33524;55.434;38.520;2024-01-25T12:31:33;16.80;;;9.27;;
47760;SDS011;33524;55.434;38.520;2024-01-25T12:34:02;16.98;;;9.27;;
47760;SDS011;33524;55.434;38.520;2024-01-25T12:36:30;22.80;;;9.57;;
47760;SDS011;33524;55.434;38.520;2024-01-25T12:39:01;18.83;;;10.63;;
47760;SDS011;33524;55.434;38.520;2024-01-25T12:41:30;17.73;;;9.85;;
47760;SDS011;33524;55.434;38.520;2024-01-25T12:43:58;16.87;;;9.32;;
47760;SDS011;33524;55.434;38.520;2024-01-25T12:46:27;18.55;;;10.77;;
47760;SDS011;33524;55.434;38.520;2024-01-25T12:51:28;24.98;;;13.20;;
47760;SDS011;33524;55.434;38.520;2024-01-25T12:53:57;21.55;;;13.00;;
47760;SDS011;33524;55.434;38.520;2024-01-25T12:56:25;19.45;;;11.88;;
47760;SDS011;33524;55.434;38.520;2024-01-25T12:58:53;19.75;;;11.23;;
47760;SDS011;33524;55.434;38.520;2024-01-25T13:01:21;19.80;;;9.88;;
47760;SDS011;33524;55.434;38.520;2024-01-25T13:03:53;19.42;;;10.48;;
47760;SDS011;33524;55.434;38.520;2024-01-25T13:06:21;19.30;;;10.40;;
47760;SDS011;33524;55.434;38.520;2024-01-25T13:08:49;17.25;;;8.90;;
47760;SDS011;33524;55.434;38.520;2024-01-25T13:11:17;24.58;;;12.00;;
47760;SDS011;33524;55.434;38.520;2024-01-25T13:13:45;17.87;;;11.10;;
47760;SDS011;33524;55.434;38.520;2024-01-25T13:16:13;17.60;;;10.63;;
47760;SDS011;33524;55.434;38.520;2024-01-25T13:18:42;16.87;;;10.68;;
47760;SDS011;33524;55.434;38.520;2024-01-25T13:21:28;23.12;;;12.05;;
47760;SDS011;33524;55.434;38.520;2024-01-25T13:23:58;21.12;;;11.38;;
47760;SDS011;33524;55.434;38.520;2024-01-25T13:26:27;22.80;;;12.13;;
47760;SDS011;33524;55.434;38.520;2024-01-25T13:29:12;23.23;;;12.45;;
47760;SDS011;33524;55.434;38.520;2024-01-25T13:31:40;20.27;;;10.52;;
47760;SDS011;33524;55.434;38.520;2024-01-25T13:34:09;21.15;;;11.98;;
47760;SDS011;33524;55.434;38.520;2024-01-25T13:36:37;19.80;;;9.82;;
47760;SDS011;33524;55.434;38.520;2024-01-25T13:39:09;21.55;;;12.05;;
47760;SDS011;33524;55.434;38.520;2024-01-25T13:41:38;18.58;;;8.75;;
47760;SDS011;33524;55.434;38.520;2024-01-25T13:44:06;19.23;;;11.18;;
47760;SDS011;33524;55.434;38.520;2024-01-25T13:46:34;21.58;;;10.73;;
47760;SDS011;33524;55.434;38.520;2024-01-25T13:49:03;20.25;;;10.85;;
47760;SDS011;33524;55.434;38.520;2024-01-25T13:51:31;22.27;;;11.15;;
47760;SDS011;33524;55.434;38.520;2024-01-25T13:53:59;19.30;;;10.15;;
47760;SDS011;33524;55.434;38.520;2024-01-25T13:56:28;19.35;;;10.98;;
47760;SDS011;33524;55.434;38.520;2024-01-25T13:58:56;19.87;;;10.55;;
47760;SDS011;33524;55.434;38.520;2024-01-25T14:01:24;17.40;;;10.07;;
47760;SDS011;33524;55.434;38.520;2024-01-25T14:03:52;28.40;;;14.38;;
47760;SDS011;33524;55.434;38.520;2024-01-25T14:06:21;22.13;;;14.20;;
47760;SDS011;33524;55.434;38.520;2024-01-25T14:08:53;28.85;;;14.82;;
47760;SDS011;33524;55.434;38.520;2024-01-25T14:11:22;25.48;;;13.73;;
47760;SDS011;33524;55.434;38.520;2024-01-25T14:13:50;23.85;;;12.23;;
47760;SDS011;33524;55.434;38.520;2024-01-25T14:16:18;21.85;;;11.80;;
47760;SDS011;33524;55.434;38.520;2024-01-25T14:18:50;24.73;;;12.15;;
47760;SDS011;33524;55.434;38.520;2024-01-25T14:21:19;17.35;;;10.93;;
47760;SDS011;33524;55.434;38.520;2024-01-25T14:23:48;24.52;;;13.35;;
47760;SDS011;33524;55.434;38.520;2024-01-25T14:26:18;26.15;;;15.25;;
47760;SDS011;33524;55.434;38.520;2024-01-25T14:28:47;23.67;;;11.85;;
47760;SDS011;33524;55.434;38.520;2024-01-25T14:31:15;19.23;;;10.57;;
47760;SDS011;33524;55.434;38.520;2024-01-25T14:33:44;23.58;;;12.68;;
47760;SDS011;33524;55.434;38.520;2024-01-25T14:36:13;26.85;;;15.00;;
47760;SDS011;33524;55.434;38.520;2024-01-25T14:38:42;33.25;;;17.65;;